Time;durP1;ratioP1;P1;durP2;ratioP2;P2;SDS_P1;SDS_P2;PMS_P1;PMS_P2;Temp;Humidity;BMP_temperature;BMP_pressure;BME280_temperature;BME280_humidity;BME280_pressure;Samples;Min_cycle;Max_cycle;Signal;HPM_P1;HPM_P2
2022/01/02 00:00:44;;;;;;;;;;;21.80;46.90;;;;;;1545664;77;906;-66
2022/01/02 00:02:52;;;;;;;;;;;21.70;47.00;;;;;;1545682;76;788;-66
2022/01/02 00:04:55;;;;;;;;;;;21.70;46.90;;;;;;1545585;77;1142;-67
2022/01/02 00:06:58;;;;;;;;;;;21.70;47.00;;;;;;1545656;77;581;-66
2022/01/02 00:09:04;;;;;;;;;;;21.80;46.90;;;;;;1545704;76;804;-67
2022/01/02 00:11:06;;;;;;;;;;;21.70;46.90;;;;;;1550667;76;794;-67
2022/01/02 00:13:08;;;;;;;;;;;21.70;47.00;;;;;;1567877;76;1934;-67
2022/01/02 00:15:10;;;;;;;;;;;21.70;46.90;;;;;;1567913;76;1105;-67
2022/01/02 00:17:12;;;;;;;;;;;21.80;47.00;;;;;;1567915;76;654;-68
2022/01/02 00:19:20;;;;;;;;;;;21.80;46.90;;;;;;1567825;76;753;-67
2022/01/02 00:21:21;;;;;;;;;;;21.70;47.00;;;;;;1567270;76;1700;-69
2022/01/02 00:23:30;;;;;;;;;;;21.70;46.90;;;;;;1567828;76;711;-68
2022/01/02 00:25:32;;;;;;;;;;;21.70;47.00;;;;;;1566477;75;1628;-67
2022/01/02 00:27:30;;;;;;;;;;;21.70;47.00;;;;;;1567026;76;1578;-68
2022/01/02 00:29:32;;;;;;;;;;;21.70;46.90;;;;;;1567809;76;740;-69
2022/01/02 00:31:34;;;;;;;;;;;21.70;47.00;;;;;;1567916;76;801;-67
2022/01/02 00:33:36;;;;;;;;;;;21.80;47.00;;;;;;1567773;76;1934;-67
2022/01/02 00:35:38;;;;;;;;;;;21.80;47.00;;;;;;1567760;76;1114;-67
2022/01/02 00:37:41;;;;;;;;;;;21.70;47.00;;;;;;1567890;76;710;-67
2022/01/02 00:39:43;;;;;;;;;;;21.70;46.90;;;;;;1567764;76;703;-67
2022/01/02 00:41:46;;;;;;;;;;;21.70;46.90;;;;;;1567921;76;711;-68
2022/01/02 00:43:49;;;;;;;;;;;21.80;46.90;;;;;;1567762;76;1327;-67
2022/01/02 00:45:51;;;;;;;;;;;21.70;46.90;;;;;;1567830;76;752;-67
2022/01/02 00:48:00;;;;;;;;;;;21.70;47.00;;;;;;1567900;75;729;-72
2022/01/02 00:50:04;;;;;;;;;;;21.70;46.90;;;;;;1567795;76;711;-67
2022/01/02 00:52:07;;;;;;;;;;;21.70;47.00;;;;;;1566284;76;1827;-67
2022/01/02 00:54:09;;;;;;;;;;;21.70;47.00;;;;;;1567692;75;1950;-66
2022/01/02 00:56:12;;;;;;;;;;;21.70;46.90;;;;;;1567836;76;765;-67
2022/01/02 00:58:16;;;;;;;;;;;21.70;46.90;;;;;;1567961;76;697;-67
2022/01/02 01:00:18;;;;;;;;;;;21.70;46.90;;;;;;1567765;76;633;-67
2022/01/02 01:02:22;;;;;;;;;;;21.70;46.90;;;;;;1567899;76;777;-69
2022/01/02 01:04:25;;;;;;;;;;;21.80;46.90;;;;;;1567911;76;1145;-67
2022/01/02 01:06:29;;;;;;;;;;;21.70;47.00;;;;;;1567810;76;800;-67
2022/01/02 01:08:31;;;;;;;;;;;21.70;47.00;;;;;;1567548;76;1974;-69
2022/01/02 01:10:35;;;;;;;;;;;21.70;47.00;;;;;;1567725;76;748;-67
2022/01/02 01:12:37;;;;;;;;;;;21.70;47.00;;;;;;1545941;76;1411;-69
2022/01/02 01:14:40;;;;;;;;;;;21.70;47.00;;;;;;1545401;77;1927;-67
2022/01/02 01:16:42;;;;;;;;;;;21.70;47.00;;;;;;1545532;77;804;-67
2022/01/02 01:18:47;;;;;;;;;;;21.70;47.00;;;;;;1545575;77;771;-67
2022/01/02 01:20:50;;;;;;;;;;;21.70;46.90;;;;;;1545437;77;1734;-67
2022/01/02 01:22:52;;;;;;;;;;;21.70;46.90;;;;;;1545619;77;826;-67
2022/01/02 01:24:54;;;;;;;;;;;21.70;46.90;;;;;;1545524;76;1068;-67
2022/01/02 01:26:58;;;;;;;;;;;21.70;47.00;;;;;;1545496;77;670;-67
2022/01/02 01:28:59;;;;;;;;;;;21.70;46.90;;;;;;1545467;76;1472;-67
2022/01/02 01:31:01;;;;;;;;;;;21.70;46.90;;;;;;1514756;77;832;-67
2022/01/02 01:33:03;;;;;;;;;;;21.70;47.00;;;;;;1545674;77;723;-67
2022/01/02 01:35:06;;;;;;;;;;;21.70;46.90;;;;;;1545380;77;1920;-67
2022/01/02 01:37:08;;;;;;;;;;;21.70;47.00;;;;;;1545564;77;792;-67
2022/01/02 01:39:09;;;;;;;;;;;21.70;46.90;;;;;;1545605;77;765;-67
2022/01/02 01:41:29;;;;;;;;;;;21.70;46.90;;;;;;1545607;77;758;-67
2022/01/02 01:43:39;;;;;;;;;;;21.70;46.90;;;;;;1545583;77;751;-67
2022/01/02 01:45:35;;;;;;;;;;;21.70;46.90;;;;;;1544103;77;1616;-69
2022/01/02 01:47:37;;;;;;;;;;;21.70;46.90;;;;;;1545729;76;824;-67
2022/01/02 01:49:38;;;;;;;;;;;21.70;46.90;;;;;;1545692;76;711;-67
2022/01/02 01:51:40;;;;;;;;;;;21.70;46.90;;;;;;1545683;77;718;-67
2022/01/02 01:53:42;;;;;;;;;;;21.70;46.90;;;;;;1545598;77;1925;-67
2022/01/02 01:55:44;;;;;;;;;;;21.70;46.90;;;;;;1545545;77;1123;-67
2022/01/02 01:57:46;;;;;;;;;;;21.70;46.90;;;;;;1545727;77;706;-67
2022/01/02 01:59:48;;;;;;;;;;;21.70;46.90;;;;;;1545606;77;731;-67
2022/01/02 02:01:50;;;;;;;;;;;21.70;46.90;;;;;;1545673;77;716;-67
2022/01/02 02:03:52;;;;;;;;;;;21.70;46.90;;;;;;1545517;77;1133;-67
2022/01/02 02:05:54;;;;;;;;;;;21.70;46.90;;;;;;1545503;77;776;-68
2022/01/02 02:07:56;;;;;;;;;;;21.70;46.90;;;;;;1545698;77;799;-67
2022/01/02 02:12:08;;;;;;;;;;;21.70;46.80;;;;;;1562026;76;863;-67
2022/01/02 02:14:10;;;;;;;;;;;21.70;46.90;;;;;;1567859;76;1945;-67
2022/01/02 02:16:11;;;;;;;;;;;21.70;46.90;;;;;;1567785;76;862;-67
2022/01/02 02:18:13;;;;;;;;;;;21.70;46.90;;;;;;1568043;76;753;-67
2022/01/02 02:20:17;;;;;;;;;;;21.70;46.90;;;;;;1567939;76;643;-65
2022/01/02 02:22:19;;;;;;;;;;;21.70;46.90;;;;;;1567911;76;720;-67
2022/01/02 02:24:21;;;;;;;;;;;21.70;46.90;;;;;;1568038;75;1117;-68
2022/01/02 02:26:23;;;;;;;;;;;21.70;46.80;;;;;;1567865;76;778;-67
2022/01/02 02:28:27;;;;;;;;;;;21.70;46.90;;;;;;1568054;76;726;-67
2022/01/02 02:30:29;;;;;;;;;;;21.70;46.90;;;;;;1567960;76;740;-67
2022/01/02 02:32:31;;;;;;;;;;;21.70;46.90;;;;;;1567901;74;801;-67
2022/01/02 02:34:33;;;;;;;;;;;21.70;46.80;;;;;;1567889;76;1942;-67
2022/01/02 02:36:35;;;;;;;;;;;21.70;46.80;;;;;;1567762;76;714;-66
2022/01/02 02:38:39;;;;;;;;;;;21.70;46.80;;;;;;1568041;76;757;-67
2022/01/02 02:40:40;;;;;;;;;;;21.70;46.80;;;;;;1567752;76;1682;-69
2022/01/02 02:42:48;;;;;;;;;;;21.70;46.80;;;;;;1567856;76;742;-67
2022/01/02 02:44:47;;;;;;;;;;;21.60;46.80;;;;;;1566654;76;1626;-67
2022/01/02 02:49:08;;;;;;;;;;;21.70;46.80;;;;;;1567861;76;1654;-67
2022/01/02 02:51:11;;;;;;;;;;;21.70;46.90;;;;;;1568031;74;774;-67
2022/01/02 02:53:13;;;;;;;;;;;21.70;46.80;;;;;;1567837;76;723;-66
2022/01/02 02:55:15;;;;;;;;;;;21.60;46.80;;;;;;1567722;76;1941;-67
2022/01/02 02:57:19;;;;;;;;;;;21.70;46.80;;;;;;1567968;76;800;-67
2022/01/02 02:59:21;;;;;;;;;;;21.60;46.80;;;;;;1567995;76;736;-67
2022/01/02 03:01:24;;;;;;;;;;;21.70;46.80;;;;;;1568080;76;783;-67
2022/01/02 03:03:26;;;;;;;;;;;21.70;46.90;;;;;;1566742;75;1935;-67
2022/01/02 03:05:28;;;;;;;;;;;21.60;46.80;;;;;;1553176;76;1126;-67
2022/01/02 03:07:30;;;;;;;;;;;21.70;46.80;;;;;;1545604;76;787;-67
2022/01/02 03:09:47;;;;;;;;;;;21.70;46.80;;;;;;1545709;77;715;-69
2022/01/02 03:11:39;;;;;;;;;;;21.70;46.80;;;;;;1542461;77;1586;-67
2022/01/02 03:13:41;;;;;;;;;;;21.70;46.80;;;;;;1545541;77;717;-67
2022/01/02 03:15:43;;;;;;;;;;;21.70;46.80;;;;;;1545490;77;1949;-66
2022/01/02 03:17:45;;;;;;;;;;;21.70;46.80;;;;;;1545613;77;770;-67
2022/01/02 03:19:47;;;;;;;;;;;21.70;46.80;;;;;;1545621;77;679;-67
2022/01/02 03:21:49;;;;;;;;;;;21.60;46.80;;;;;;1545750;77;788;-68
2022/01/02 03:23:51;;;;;;;;;;;21.70;46.80;;;;;;1545478;77;1141;-69
2022/01/02 03:25:52;;;;;;;;;;;21.60;46.70;;;;;;1545503;77;792;-67
2022/01/02 03:27:54;;;;;;;;;;;21.70;46.80;;;;;;1545589;77;784;-67
2022/01/02 03:29:56;;;;;;;;;;;21.70;46.80;;;;;;1545538;77;712;-67
2022/01/02 03:31:58;;;;;;;;;;;21.70;46.80;;;;;;1545627;77;694;-67
2022/01/02 03:34:00;;;;;;;;;;;21.60;46.80;;;;;;1545557;77;1947;-67
2022/01/02 03:36:02;;;;;;;;;;;21.70;46.80;;;;;;1545678;77;656;-67
2022/01/02 03:38:04;;;;;;;;;;;21.60;46.70;;;;;;1545775;76;726;-68
2022/01/02 03:40:06;;;;;;;;;;;21.60;46.70;;;;;;1545528;77;790;-68
2022/01/02 03:42:08;;;;;;;;;;;21.70;46.80;;;;;;1545632;77;772;-66
2022/01/02 03:44:10;;;;;;;;;;;21.60;46.80;;;;;;1545682;77;1190;-68
2022/01/02 03:46:12;;;;;;;;;;;21.70;46.80;;;;;;1545477;77;668;-69
2022/01/02 03:48:14;;;;;;;;;;;21.70;46.80;;;;;;1534553;77;791;-67
2022/01/02 03:50:16;;;;;;;;;;;21.70;46.80;;;;;;1542711;77;776;-69
2022/01/02 03:52:18;;;;;;;;;;;21.60;46.70;;;;;;1545702;77;728;-67
2022/01/02 03:54:21;;;;;;;;;;;21.70;46.80;;;;;;1545523;77;1921;-67
2022/01/02 03:56:23;;;;;;;;;;;21.70;46.80;;;;;;1545523;77;716;-67
2022/01/02 03:58:25;;;;;;;;;;;21.70;46.80;;;;;;1545666;77;637;-67
2022/01/02 04:00:27;;;;;;;;;;;21.70;46.80;;;;;;1545641;77;724;-69
2022/01/02 04:02:29;;;;;;;;;;;21.70;46.80;;;;;;1555626;75;700;-67
2022/01/02 04:04:31;;;;;;;;;;;21.70;46.80;;;;;;1546190;75;1108;-67
2022/01/02 04:06:33;;;;;;;;;;;21.70;46.80;;;;;;1545459;77;801;-67
2022/01/02 04:08:34;;;;;;;;;;;21.70;46.80;;;;;;1545677;77;786;-67
2022/01/02 04:10:36;;;;;;;;;;;21.70;46.80;;;;;;1545638;77;715;-67
2022/01/02 04:12:38;;;;;;;;;;;21.70;46.80;;;;;;1545622;77;773;-67
2022/01/02 04:14:40;;;;;;;;;;;21.70;46.80;;;;;;1545616;77;1963;-69
2022/01/02 04:16:42;;;;;;;;;;;21.70;46.70;;;;;;1545471;77;1034;-69
2022/01/02 04:18:44;;;;;;;;;;;21.80;46.70;;;;;;1545680;76;722;-67
2022/01/02 04:20:49;;;;;;;;;;;21.70;46.70;;;;;;1545651;76;790;-67
2022/01/02 04:22:49;;;;;;;;;;;21.70;46.70;;;;;;1545359;76;1471;-67
2022/01/02 04:24:51;;;;;;;;;;;21.80;46.70;;;;;;1545655;77;1138;-67
2022/01/02 04:26:53;;;;;;;;;;;21.70;46.70;;;;;;1545468;77;721;-67
2022/01/02 04:28:55;;;;;;;;;;;21.80;46.70;;;;;;1545553;77;733;-68
2022/01/02 04:30:57;;;;;;;;;;;21.70;46.80;;;;;;1545606;77;722;-67
2022/01/02 04:32:58;;;;;;;;;;;21.70;46.70;;;;;;1545658;76;788;-67
2022/01/02 04:35:00;;;;;;;;;;;21.70;46.80;;;;;;1545489;77;1959;-67
2022/01/02 04:37:04;;;;;;;;;;;21.70;46.70;;;;;;1545597;77;772;-67
2022/01/02 04:39:06;;;;;;;;;;;21.70;46.70;;;;;;1545638;77;940;-67
2022/01/02 04:41:07;;;;;;;;;;;21.70;46.80;;;;;;1545698;77;731;-68
2022/01/02 04:43:09;;;;;;;;;;;21.70;46.70;;;;;;1545639;77;775;-69
2022/01/02 04:45:11;;;;;;;;;;;21.70;46.70;;;;;;1545614;76;1247;-66
2022/01/02 04:47:13;;;;;;;;;;;21.70;46.70;;;;;;1545553;77;742;-66
2022/01/02 04:49:15;;;;;;;;;;;21.80;46.70;;;;;;1545608;77;753;-67
2022/01/02 04:51:17;;;;;;;;;;;21.70;46.70;;;;;;1545536;77;723;-68
2022/01/02 04:53:23;;;;;;;;;;;21.80;46.70;;;;;;1545585;77;710;-67
2022/01/02 04:55:22;;;;;;;;;;;21.80;46.70;;;;;;1544959;77;1947;-67
2022/01/02 04:57:24;;;;;;;;;;;21.70;46.70;;;;;;1545684;76;730;-66
2022/01/02 04:59:26;;;;;;;;;;;21.70;46.70;;;;;;1545676;76;811;-67
2022/01/02 05:01:28;;;;;;;;;;;21.70;46.80;;;;;;1545678;77;769;-67
2022/01/02 05:03:30;;;;;;;;;;;21.70;46.70;;;;;;1545524;77;922;-67
2022/01/02 05:05:31;;;;;;;;;;;21.70;46.70;;;;;;1544698;77;1122;-67
2022/01/02 05:07:33;;;;;;;;;;;21.70;46.70;;;;;;1544329;77;757;-67
2022/01/02 05:09:35;;;;;;;;;;;21.70;46.70;;;;;;1544384;77;786;-67
2022/01/02 05:11:37;;;;;;;;;;;21.70;46.60;;;;;;1544438;77;737;-68
2022/01/02 05:13:39;;;;;;;;;;;21.70;46.70;;;;;;1544303;77;719;-67
2022/01/02 05:15:41;;;;;;;;;;;21.70;46.70;;;;;;1544255;77;1955;-67
2022/01/02 05:17:44;;;;;;;;;;;21.70;46.60;;;;;;1544267;77;644;-67
2022/01/02 05:19:46;;;;;;;;;;;21.70;46.70;;;;;;1543594;77;1567;-67
2022/01/02 05:21:48;;;;;;;;;;;21.70;46.70;;;;;;1544404;77;651;-67
2022/01/02 05:23:50;;;;;;;;;;;21.70;46.60;;;;;;1544269;77;1132;-69
2022/01/02 05:25:52;;;;;;;;;;;21.70;46.70;;;;;;1544346;77;723;-67
2022/01/02 05:27:54;;;;;;;;;;;21.70;46.70;;;;;;1544308;77;715;-67
2022/01/02 05:29:56;;;;;;;;;;;21.70;46.60;;;;;;1544307;77;780;-67
2022/01/02 05:31:58;;;;;;;;;;;21.70;46.60;;;;;;1544318;77;700;-67
2022/01/02 05:34:00;;;;;;;;;;;21.70;46.60;;;;;;1544226;77;1178;-67
2022/01/02 05:36:02;;;;;;;;;;;21.70;46.70;;;;;;1544218;77;1920;-67
2022/01/02 05:38:04;;;;;;;;;;;21.70;46.70;;;;;;1544287;77;718;-65
2022/01/02 05:40:06;;;;;;;;;;;21.60;46.60;;;;;;1544286;77;689;-67
2022/01/02 05:42:10;;;;;;;;;;;21.80;46.70;;;;;;1544299;77;751;-67
2022/01/02 05:44:11;;;;;;;;;;;21.70;46.70;;;;;;1544245;77;2079;-67
2022/01/02 05:46:13;;;;;;;;;;;21.70;46.70;;;;;;1544274;77;827;-68
2022/01/02 05:48:15;;;;;;;;;;;21.70;46.70;;;;;;1544283;77;780;-69
2022/01/02 05:50:17;;;;;;;;;;;21.60;46.60;;;;;;1544300;77;832;-67
2022/01/02 05:52:19;;;;;;;;;;;21.60;46.60;;;;;;1544402;77;770;-67
2022/01/02 05:54:21;;;;;;;;;;;21.60;46.60;;;;;;1544278;77;1118;-67
2022/01/02 05:56:23;;;;;;;;;;;21.70;46.70;;;;;;1544214;77;1937;-67
2022/01/02 05:58:25;;;;;;;;;;;21.70;46.70;;;;;;1544300;77;719;-67
2022/01/02 06:00:26;;;;;;;;;;;21.70;46.70;;;;;;1544372;77;640;-67
2022/01/02 06:02:30;;;;;;;;;;;21.70;46.70;;;;;;1544285;77;794;-68
2022/01/02 06:04:32;;;;;;;;;;;21.70;46.70;;;;;;1544022;77;1666;-67
2022/01/02 06:06:34;;;;;;;;;;;21.70;46.70;;;;;;1544324;77;727;-67
2022/01/02 06:08:36;;;;;;;;;;;21.70;46.70;;;;;;1544172;77;816;-67
2022/01/02 06:10:37;;;;;;;;;;;21.70;46.70;;;;;;1513479;78;659;-67
2022/01/02 06:12:39;;;;;;;;;;;21.70;46.60;;;;;;1544277;77;783;-67
2022/01/02 06:14:41;;;;;;;;;;;21.70;46.60;;;;;;1544283;77;1150;-68
2022/01/02 06:16:43;;;;;;;;;;;21.70;46.70;;;;;;1544200;77;1947;-68
2022/01/02 06:18:45;;;;;;;;;;;21.60;46.60;;;;;;1544303;77;738;-67
2022/01/02 06:20:47;;;;;;;;;;;21.60;46.50;;;;;;1544230;77;651;-67
2022/01/02 06:22:50;;;;;;;;;;;21.70;46.70;;;;;;1544342;77;739;-67
2022/01/02 06:24:52;;;;;;;;;;;21.70;46.70;;;;;;1544160;77;1103;-67
2022/01/02 06:26:54;;;;;;;;;;;21.70;46.70;;;;;;1544310;77;658;-69
2022/01/02 06:28:55;;;;;;;;;;;21.70;46.70;;;;;;1544360;77;774;-69
2022/01/02 06:30:57;;;;;;;;;;;21.60;46.60;;;;;;1544384;77;720;-67
2022/01/02 06:32:59;;;;;;;;;;;21.70;46.60;;;;;;1544462;77;801;-67
2022/01/02 06:35:01;;;;;;;;;;;21.70;46.60;;;;;;1544241;77;1142;-67
2022/01/02 06:37:03;;;;;;;;;;;21.70;46.70;;;;;;1544360;77;1927;-67
2022/01/02 06:39:05;;;;;;;;;;;21.70;46.70;;;;;;1544371;77;641;-67
2022/01/02 06:41:07;;;;;;;;;;;21.70;46.70;;;;;;1544344;77;789;-67
2022/01/02 06:43:09;;;;;;;;;;;21.70;46.70;;;;;;1544462;77;807;-69
2022/01/02 06:45:11;;;;;;;;;;;21.70;46.60;;;;;;1544194;77;1130;-67
2022/01/02 06:47:12;;;;;;;;;;;21.70;46.70;;;;;;1544441;77;785;-67
2022/01/02 06:49:14;;;;;;;;;;;21.70;46.60;;;;;;1544457;77;723;-67
2022/01/02 06:51:16;;;;;;;;;;;21.70;46.60;;;;;;1544425;77;715;-66
2022/01/02 06:53:18;;;;;;;;;;;21.70;46.60;;;;;;1544514;77;757;-67
2022/01/02 06:55:20;;;;;;;;;;;21.70;46.60;;;;;;1544269;77;1944;-67
2022/01/02 06:57:22;;;;;;;;;;;21.70;46.60;;;;;;1544482;77;638;-67
2022/01/02 06:59:26;;;;;;;;;;;21.70;46.60;;;;;;1544329;77;884;-69
2022/01/02 07:01:27;;;;;;;;;;;21.70;46.60;;;;;;1544273;77;2083;-67
2022/01/02 07:03:29;;;;;;;;;;;21.70;46.60;;;;;;1544357;77;797;-67
2022/01/02 07:05:31;;;;;;;;;;;21.70;46.60;;;;;;1544159;77;1095;-67
2022/01/02 07:07:33;;;;;;;;;;;21.60;46.50;;;;;;1544489;77;712;-67
2022/01/02 07:09:35;;;;;;;;;;;21.70;46.60;;;;;;1544459;77;751;-67
2022/01/02 07:11:37;;;;;;;;;;;21.70;46.60;;;;;;1544947;77;776;-67
2022/01/02 07:13:41;;;;;;;;;;;21.70;46.60;;;;;;1545635;77;726;-69
2022/01/02 07:15:43;;;;;;;;;;;21.70;46.60;;;;;;1545420;77;1910;-67
2022/01/02 07:17:45;;;;;;;;;;;21.70;46.60;;;;;;1545720;77;648;-67
2022/01/02 07:19:47;;;;;;;;;;;21.70;46.60;;;;;;1545700;77;780;-68
2022/01/02 07:21:49;;;;;;;;;;;21.70;46.60;;;;;;1545632;77;775;-67
2022/01/02 07:23:54;;;;;;;;;;;21.70;46.60;;;;;;1545573;77;1132;-69
2022/01/02 07:25:55;;;;;;;;;;;21.70;46.60;;;;;;1545233;76;1673;-67
2022/01/02 07:27:56;;;;;;;;;;;21.70;46.60;;;;;;1545714;77;718;-67
2022/01/02 07:29:59;;;;;;;;;;;21.60;46.50;;;;;;1545756;77;696;-67
2022/01/02 07:32:01;;;;;;;;;;;21.60;46.50;;;;;;1545542;77;728;-67
2022/01/02 07:34:03;;;;;;;;;;;21.70;46.60;;;;;;1545667;77;1204;-67
2022/01/02 07:36:04;;;;;;;;;;;21.70;46.60;;;;;;1545472;77;1922;-67
2022/01/02 07:38:06;;;;;;;;;;;21.70;46.70;;;;;;1545635;77;657;-68
2022/01/02 07:40:08;;;;;;;;;;;21.70;46.70;;;;;;1545704;77;765;-69
2022/01/02 07:42:10;;;;;;;;;;;21.70;46.60;;;;;;1545486;77;798;-69
2022/01/02 07:44:12;;;;;;;;;;;21.70;46.60;;;;;;1545666;77;1164;-63
2022/01/02 07:46:14;;;;;;;;;;;21.70;46.60;;;;;;1545657;76;812;-67
2022/01/02 07:48:16;;;;;;;;;;;21.70;46.60;;;;;;1545624;77;784;-67
2022/01/02 07:50:18;;;;;;;;;;;21.70;46.60;;;;;;1545597;77;707;-67
2022/01/02 07:52:20;;;;;;;;;;;21.70;46.50;;;;;;1545634;77;801;-67
2022/01/02 07:54:22;;;;;;;;;;;21.60;46.50;;;;;;1545583;76;1197;-67
2022/01/02 07:56:25;;;;;;;;;;;21.70;46.60;;;;;;1545561;77;1933;-67
2022/01/02 07:58:27;;;;;;;;;;;21.70;46.60;;;;;;1545505;77;846;-67
2022/01/02 08:00:29;;;;;;;;;;;21.70;46.60;;;;;;1545593;77;715;-66
2022/01/02 08:02:30;;;;;;;;;;;21.70;46.60;;;;;;1545661;77;723;-67
2022/01/02 08:04:32;;;;;;;;;;;21.70;46.70;;;;;;1545639;77;1132;-67
2022/01/02 08:06:34;;;;;;;;;;;21.70;46.60;;;;;;1545236;77;743;-67
2022/01/02 08:08:36;;;;;;;;;;;21.70;46.60;;;;;;1544310;77;804;-68
2022/01/02 08:10:39;;;;;;;;;;;21.70;46.60;;;;;;1544331;77;777;-68
2022/01/02 08:12:41;;;;;;;;;;;21.70;46.50;;;;;;1544216;77;735;-67
2022/01/02 08:14:42;;;;;;;;;;;21.70;46.60;;;;;;1544418;77;1087;-67
2022/01/02 08:16:44;;;;;;;;;;;21.70;46.50;;;;;;1544311;77;1935;-69
2022/01/02 08:18:46;;;;;;;;;;;21.70;46.50;;;;;;1544375;77;835;-66
2022/01/02 08:20:48;;;;;;;;;;;21.70;46.50;;;;;;1544458;77;733;-67
2022/01/02 08:22:50;;;;;;;;;;;21.70;46.60;;;;;;1544348;77;727;-67
2022/01/02 08:24:52;;;;;;;;;;;21.70;46.50;;;;;;1544399;77;1138;-67
2022/01/02 08:26:54;;;;;;;;;;;21.70;46.60;;;;;;1544371;77;665;-67
2022/01/02 08:28:56;;;;;;;;;;;21.70;46.60;;;;;;1544346;77;773;-67
2022/01/02 08:30:58;;;;;;;;;;;21.70;46.60;;;;;;1544359;77;794;-68
2022/01/02 08:32:59;;;;;;;;;;;21.70;46.60;;;;;;1544398;77;652;-68
2022/01/02 08:35:01;;;;;;;;;;;21.70;46.60;;;;;;1544224;77;1142;-69
2022/01/02 08:37:03;;;;;;;;;;;21.70;46.60;;;;;;1544353;77;1939;-67
2022/01/02 08:39:05;;;;;;;;;;;21.70;46.60;;;;;;1544333;77;749;-67
2022/01/02 08:41:07;;;;;;;;;;;21.70;46.60;;;;;;1544438;77;718;-67
2022/01/02 08:43:09;;;;;;;;;;;21.70;46.60;;;;;;1544297;77;723;-67
2022/01/02 08:45:11;;;;;;;;;;;21.70;46.60;;;;;;1544152;77;1154;-66
2022/01/02 08:47:13;;;;;;;;;;;21.70;46.60;;;;;;1544486;77;759;-67
2022/01/02 08:49:14;;;;;;;;;;;21.70;46.60;;;;;;1544306;77;740;-69
2022/01/02 08:51:16;;;;;;;;;;;21.70;46.60;;;;;;1544480;77;723;-69
2022/01/02 08:53:18;;;;;;;;;;;21.70;46.60;;;;;;1544324;77;807;-67
2022/01/02 08:55:20;;;;;;;;;;;21.70;46.50;;;;;;1544276;77;1126;-67
2022/01/02 08:57:22;;;;;;;;;;;21.70;46.60;;;;;;1544313;77;1937;-67
2022/01/02 08:59:27;;;;;;;;;;;21.60;46.50;;;;;;1544209;77;707;-67
2022/01/02 09:01:28;;;;;;;;;;;21.70;46.50;;;;;;1543894;77;1528;-67
2022/01/02 09:03:30;;;;;;;;;;;21.60;46.50;;;;;;1544384;77;780;-67
2022/01/02 09:05:32;;;;;;;;;;;21.70;46.50;;;;;;1544182;77;1093;-66
2022/01/02 09:07:33;;;;;;;;;;;21.70;46.50;;;;;;1545253;77;810;-68
2022/01/02 09:09:35;;;;;;;;;;;21.80;46.50;;;;;;1545613;77;746;-67
2022/01/02 09:11:37;;;;;;;;;;;21.70;46.50;;;;;;1545578;76;784;-67
2022/01/02 09:13:39;;;;;;;;;;;21.70;46.60;;;;;;1545499;77;710;-66
2022/01/02 09:15:41;;;;;;;;;;;21.70;46.50;;;;;;1545519;77;1096;-67
2022/01/02 09:17:43;;;;;;;;;;;21.70;46.50;;;;;;1545547;77;1921;-67
2022/01/02 09:19:45;;;;;;;;;;;21.70;46.50;;;;;;1545485;77;710;-67
2022/01/02 09:21:47;;;;;;;;;;;21.80;46.50;;;;;;1545684;77;668;-67
2022/01/02 09:23:49;;;;;;;;;;;21.70;46.50;;;;;;1545664;77;1126;-68
2022/01/02 09:25:50;;;;;;;;;;;21.80;46.50;;;;;;1545542;77;791;-68
2022/01/02 09:27:52;;;;;;;;;;;21.80;46.50;;;;;;1545621;77;789;-67
2022/01/02 09:29:54;;;;;;;;;;;21.70;46.50;;;;;;1545594;77;781;-67
2022/01/02 09:31:56;;;;;;;;;;;21.70;46.50;;;;;;1545550;77;807;-67
2022/01/02 09:33:58;;;;;;;;;;;21.80;46.50;;;;;;1545471;77;1137;-67
2022/01/02 09:36:00;;;;;;;;;;;21.70;46.50;;;;;;1545559;77;717;-67
2022/01/02 09:38:02;;;;;;;;;;;21.80;46.50;;;;;;1545510;77;1929;-67
2022/01/02 09:40:04;;;;;;;;;;;21.70;46.50;;;;;;1545615;77;856;-67
2022/01/02 09:42:06;;;;;;;;;;;21.70;46.50;;;;;;1545540;77;676;-67
2022/01/02 09:44:08;;;;;;;;;;;21.70;46.50;;;;;;1545481;77;1165;-67
2022/01/02 09:46:10;;;;;;;;;;;21.70;46.50;;;;;;1545479;77;672;-67
2022/01/02 09:48:12;;;;;;;;;;;21.70;46.50;;;;;;1545600;77;791;-69
2022/01/02 09:50:14;;;;;;;;;;;21.70;46.50;;;;;;1545557;77;827;-68
2022/01/02 09:52:16;;;;;;;;;;;21.80;46.50;;;;;;1545584;77;672;-67
2022/01/02 09:54:17;;;;;;;;;;;21.80;46.40;;;;;;1545539;76;1098;-67
2022/01/02 09:56:19;;;;;;;;;;;21.80;46.40;;;;;;1545553;76;1947;-67
2022/01/02 09:58:23;;;;;;;;;;;21.70;46.50;;;;;;1545585;77;720;-67
2022/01/02 10:00:27;;;;;;;;;;;21.70;46.50;;;;;;1545635;77;879;-69
2022/01/02 10:02:28;;;;;;;;;;;21.70;46.50;;;;;;1545539;76;2083;-66
2022/01/02 10:04:34;;;;;;;;;;;21.80;46.40;;;;;;1514626;77;1193;-67
2022/01/02 10:06:46;;;;;;;;;;;21.80;46.50;;;;;;1546919;76;804;-67
2022/01/02 10:08:49;;;;;;;;;;;21.70;46.50;;;;;;1567513;74;1687;-67
2022/01/02 10:10:58;;;;;;;;;;;21.70;46.40;;;;;;1568022;76;779;-69
2022/01/02 10:13:01;;;;;;;;;;;21.70;46.50;;;;;;1567906;76;599;-67
2022/01/02 10:15:15;;;;;;;;;;;21.70;46.50;;;;;;1567891;76;1148;-66
2022/01/02 10:17:14;;;;;;;;;;;21.70;46.50;;;;;;1567047;76;1930;-67
2022/01/02 10:19:20;;;;;;;;;;;21.70;46.50;;;;;;1568017;76;786;-68
2022/01/02 10:21:37;;;;;;;;;;;21.80;46.50;;;;;;1567863;75;715;-69
2022/01/02 10:23:39;;;;;;;;;;;21.70;46.50;;;;;;1567877;76;834;-66
2022/01/02 10:25:49;;;;;;;;;;;21.70;46.40;;;;;;1567925;76;1081;-67
2022/01/02 10:27:50;;;;;;;;;;;21.80;46.40;;;;;;1567913;76;714;-67
2022/01/02 10:29:59;;;;;;;;;;;21.80;46.40;;;;;;1568069;74;766;-68
2022/01/02 10:32:02;;;;;;;;;;;21.80;46.40;;;;;;1567953;76;730;-67
2022/01/02 10:34:04;;;;;;;;;;;21.70;46.40;;;;;;1567930;76;1117;-67
2022/01/02 10:36:06;;;;;;;;;;;21.80;46.40;;;;;;1567974;76;778;-67
2022/01/02 10:38:09;;;;;;;;;;;21.80;46.30;;;;;;1567832;74;1928;-67
2022/01/02 10:40:24;;;;;;;;;;;21.80;46.30;;;;;;1567246;75;1854;-66
2022/01/02 10:42:27;;;;;;;;;;;21.80;46.30;;;;;;1567942;76;760;-67
2022/01/02 10:44:31;;;;;;;;;;;21.80;46.40;;;;;;1567906;76;1157;-69
2022/01/02 10:46:33;;;;;;;;;;;21.80;46.40;;;;;;1567851;76;732;-66
2022/01/02 10:48:35;;;;;;;;;;;21.80;46.40;;;;;;1567878;76;710;-67
2022/01/02 10:50:38;;;;;;;;;;;21.80;46.40;;;;;;1567949;76;792;-67
2022/01/02 10:52:41;;;;;;;;;;;21.80;46.30;;;;;;1567902;76;790;-68
2022/01/02 10:54:43;;;;;;;;;;;21.80;46.30;;;;;;1566792;75;1519;-67
2022/01/02 10:56:45;;;;;;;;;;;21.80;46.40;;;;;;1567750;76;1934;-66
2022/01/02 10:58:47;;;;;;;;;;;21.80;46.30;;;;;;1567940;76;789;-67
2022/01/02 11:00:49;;;;;;;;;;;21.80;46.40;;;;;;1567938;76;779;-67
2022/01/02 11:02:51;;;;;;;;;;;21.80;46.30;;;;;;1538348;77;713;-67
2022/01/02 11:04:54;;;;;;;;;;;21.80;46.30;;;;;;1567975;76;1131;-68
2022/01/02 11:06:56;;;;;;;;;;;21.80;46.30;;;;;;1567864;76;734;-67
2022/01/02 11:08:58;;;;;;;;;;;21.90;46.50;;;;;;1567973;75;706;-67
2022/01/02 11:11:00;;;;;;;;;;;21.80;46.30;;;;;;1567874;75;713;-67
2022/01/02 11:13:04;;;;;;;;;;;21.80;46.30;;;;;;1562404;76;754;-67
2022/01/02 11:15:07;;;;;;;;;;;21.80;46.30;;;;;;1545625;77;1143;-65
2022/01/02 11:17:09;;;;;;;;;;;21.80;46.30;;;;;;1545599;77;1912;-67
2022/01/02 11:19:11;;;;;;;;;;;21.90;46.40;;;;;;1545604;77;858;-67
2022/01/02 11:21:13;;;;;;;;;;;21.80;46.30;;;;;;1545609;76;774;-66
2022/01/02 11:23:20;;;;;;;;;;;21.80;46.40;;;;;;1545536;77;872;-67
2022/01/02 11:25:27;;;;;;;;;;;21.80;46.30;;;;;;1545506;77;1091;-67
2022/01/02 11:27:45;;;;;;;;;;;21.80;46.30;;;;;;1545699;77;781;-67
2022/01/02 11:29:47;;;;;;;;;;;21.80;46.30;;;;;;1545603;77;726;-67
2022/01/02 11:31:50;;;;;;;;;;;21.80;46.40;;;;;;1545621;77;779;-67
2022/01/02 11:33:52;;;;;;;;;;;21.80;46.40;;;;;;1545535;77;1130;-69
2022/01/02 11:35:56;;;;;;;;;;;21.80;46.40;;;;;;1545670;76;807;-66
2022/01/02 11:38:07;;;;;;;;;;;21.80;46.40;;;;;;1545602;76;1913;-67
2022/01/02 11:40:03;;;;;;;;;;;21.90;46.50;;;;;;1543984;77;1560;-67
2022/01/02 11:42:05;;;;;;;;;;;21.80;46.40;;;;;;1545613;77;783;-69
2022/01/02 11:44:08;;;;;;;;;;;21.90;46.50;;;;;;1545546;77;1170;-68
2022/01/02 11:46:21;;;;;;;;;;;21.80;46.30;;;;;;1545496;76;800;-67
2022/01/02 11:48:26;;;;;;;;;;;21.90;46.50;;;;;;1545691;77;718;-67
2022/01/02 11:50:35;;;;;;;;;;;21.90;46.50;;;;;;1545582;77;655;-67
2022/01/02 11:52:36;;;;;;;;;;;21.90;46.50;;;;;;1545675;76;1852;-67
2022/01/02 11:54:49;;;;;;;;;;;21.90;46.50;;;;;;1545624;76;1165;-67
2022/01/02 11:56:48;;;;;;;;;;;21.80;46.30;;;;;;1544947;77;1599;-67
2022/01/02 11:58:50;;;;;;;;;;;21.80;46.30;;;;;;1545597;77;1951;-68
2022/01/02 12:00:52;;;;;;;;;;;21.80;46.30;;;;;;1545502;77;750;-67
2022/01/02 12:02:54;;;;;;;;;;;21.90;46.50;;;;;;1545702;77;788;-68
2022/01/02 12:07:04;;;;;;;;;;;21.90;46.50;;;;;;1545622;77;864;-68
2022/01/02 12:09:08;;;;;;;;;;;21.90;46.40;;;;;;1545680;76;810;-69
2022/01/02 12:11:28;;;;;;;;;;;21.90;46.50;;;;;;1540946;77;1750;-66
2022/01/02 12:13:32;;;;;;;;;;;21.90;46.50;;;;;;1556192;76;772;-67
2022/01/02 12:15:35;;;;;;;;;;;21.90;46.50;;;;;;1567190;76;1569;-67
2022/01/02 12:17:38;;;;;;;;;;;21.90;46.50;;;;;;1567938;76;1926;-69